Aeroporto :
LOGIN :

Iscrizione | Disclaimer

   EN    FR    IT 

 










Sommario :    VFR   VFR Marginale   IFR   IFR Intensivo   IFR Molto Intensivo
Visibilità : 
Base nubi : 
>= 8 km
>= 3000ft
5 / 8 km
1000 / 3000 ft
1500m / 5 km
500 / 1000 ft
800 / 1500m
200 / 500 ft
< 800m
< 200 ft
Simboli :   Temporali  Nebbia  Neve Forte  Precipitazioni Forti  Vento > 20 kt
SIGMETs :   Varie  Temporali  Ghiacco  Turbolenza  Onda orograficha  Ceneri Vulcaniche






- Altitudine del aeroporto : 72 ft
- Codice IATA : UDE


EHVK - Volkel Airbase

ULTIMO METAR :
  • 281925Z AUTO 04008KT 9999 FEW073 OVC100 17/02 Q1030 BLU

METARs OBSOLETI :
  • 281855Z AUTO 04011KT 350V070 9999 OVC120 17/02 Q1030 BLU
  • 281825Z AUTO 03009KT 360V080 9999 OVC120 18/03 Q1030 BLU
  • 281755Z AUTO 04011KT 9999 OVC140 19/02 Q1030 BLU
  • 281725Z AUTO 05010KT 360V090 9999 OVC130 20/03 Q1030 BLU
  • 281655Z AUTO 04011KT 350V090 9999 OVC140 21/03 Q1030 BLU

TAF TAF EHVK
Valido dal 28 a 17 ore il 29 a 05 ore UTC


281646Z 2817/2905 04010KT CAVOK
BECMG 2819/2822 04006KT



MetMap, La meteo Aeronautica in un colpo d'occhio ! - Copyright ORBIFLY Dicembre 2007 - Disclaimer

ORBIFLY MET'MAP TEAM :

Programmazione e sviluppo : Alexandra Zaïnal
Concezione : Baudouin d'Aumeries
Aiuto per la programmazione : Marc-Olivier Méhu
Supporto tecnico e logistico : Manuel Goepfert
Aiuto per la traduzione : Arnaldo La Scala

Contatto : metmap@orbifly.com




FONTI E CREDITI :

   NOAA